createdAt,value
2019-04-22T00:02:20.536Z,8.01
2019-04-22T00:05:01.075Z,7.93
2019-04-22T00:07:42.019Z,7.99
2019-04-22T00:10:24.248Z,8.02
2019-04-22T00:12:48.611Z,8.15
2019-04-22T00:15:10.068Z,8.17
2019-04-22T00:17:55.089Z,8.64
2019-04-22T00:20:14.469Z,8.39
2019-04-22T00:22:50.554Z,8.43
2019-04-22T00:25:29.849Z,8.04
2019-04-22T00:27:57.004Z,8.00
2019-04-22T00:30:22.465Z,7.99
2019-04-22T00:32:58.953Z,7.81
2019-04-22T00:35:23.694Z,7.90
2019-04-22T00:38:08.445Z,8.01
2019-04-22T00:42:58.338Z,8.16
2019-04-22T00:45:34.389Z,8.33
2019-04-22T00:48:09.284Z,8.43
2019-04-22T00:50:58.330Z,8.25
2019-04-22T00:53:14.648Z,8.17
2019-04-22T00:55:37.880Z,8.21
2019-04-22T00:58:08.022Z,8.15
2019-04-22T01:00:44.407Z,7.83
2019-04-22T01:03:19.982Z,8.00
2019-04-22T01:05:40.798Z,7.97
2019-04-22T01:08:14.872Z,7.87
2019-04-22T01:10:49.839Z,7.75
2019-04-22T01:13:16.330Z,7.42
2019-04-22T01:16:05.147Z,7.52
2019-04-22T01:18:13.243Z,7.92
2019-04-22T01:23:19.499Z,7.78
2019-04-22T01:25:46.326Z,7.63
2019-04-22T01:28:10.952Z,7.37
2019-04-22T01:30:34.991Z,7.22
2019-04-22T01:33:05.709Z,7.12
2019-04-22T01:35:38.614Z,6.49
2019-04-22T01:38:13.621Z,6.70
2019-04-22T01:43:24.609Z,6.45
2019-04-22T01:45:54.702Z,6.44
2019-04-22T01:48:26.393Z,6.61
2019-04-22T01:50:54.717Z,6.49
2019-04-22T01:53:36.575Z,6.08
2019-04-22T01:56:08.807Z,6.06
2019-04-22T01:58:30.933Z,6.27
2019-04-22T02:01:09.738Z,6.22
2019-04-22T02:03:40.048Z,6.30
2019-04-22T02:06:07.555Z,6.42
2019-04-22T02:08:46.633Z,6.50
2019-04-22T02:11:07.676Z,6.50
2019-04-22T02:13:48.016Z,6.40
2019-04-22T02:16:14.525Z,6.58
2019-04-22T02:18:50.716Z,6.57
2019-04-22T02:21:08.408Z,6.48
2019-04-22T02:23:51.298Z,6.51
2019-04-22T02:26:19.426Z,6.43
2019-04-22T02:28:53.713Z,6.51
2019-04-22T02:36:23.013Z,6.40
2019-04-22T02:39:00.062Z,6.41
2019-04-22T02:43:59.522Z,6.52
2019-04-22T02:51:22.130Z,6.31
2019-04-22T02:59:08.634Z,6.01
2019-04-22T03:01:33.148Z,5.98
2019-04-22T03:04:11.055Z,6.12
2019-04-22T03:09:07.548Z,6.00
2019-04-22T03:11:45.061Z,5.83
2019-04-22T03:16:34.989Z,6.07
2019-04-22T03:19:09.918Z,5.61
2019-04-22T03:21:25.025Z,5.52
2019-04-22T03:29:14.927Z,5.56
2019-04-22T03:42:05.562Z,5.24
2019-04-22T03:47:12.082Z,5.41
2019-04-22T03:49:37.234Z,5.41
2019-04-22T04:07:20.508Z,5.51
2019-04-22T04:12:25.850Z,5.54
2019-04-22T04:15:17.331Z,5.68
2019-04-22T04:23:03.870Z,6.02
2019-04-22T04:25:42.909Z,6.06
2019-04-22T04:28:46.418Z,6.00
2019-04-22T04:31:00.903Z,5.81
2019-04-22T04:33:28.910Z,5.51
2019-04-22T04:36:02.762Z,5.73
2019-04-22T04:38:36.629Z,5.68
2019-04-22T04:41:06.212Z,5.68
2019-04-22T04:43:50.215Z,5.83
2019-04-22T04:46:13.847Z,5.92
2019-04-22T04:57:00.792Z,6.78
2019-04-22T05:02:10.055Z,8.01
2019-04-22T05:05:00.272Z,8.67
2019-04-22T05:09:37.760Z,8.85
2019-04-22T05:12:25.511Z,8.93
2019-04-22T05:14:44.615Z,8.96
2019-04-22T05:17:16.018Z,9.74
2019-04-22T05:19:56.675Z,9.90
2019-04-22T05:22:14.918Z,9.99
2019-04-22T05:24:34.771Z,9.93
2019-04-22T05:27:20.452Z,10.50
2019-04-22T05:30:00.648Z,10.15
2019-04-22T05:32:14.403Z,10.36
2019-04-22T05:34:52.966Z,10.95
2019-04-22T05:37:07.365Z,10.97
2019-04-22T05:39:37.054Z,11.56
2019-04-22T05:44:47.727Z,10.94
2019-04-22T05:47:17.753Z,11.18
2019-04-22T05:49:36.968Z,11.19
2019-04-22T05:52:09.615Z,11.35
2019-04-22T05:54:53.213Z,11.27
2019-04-22T05:57:18.030Z,12.05
2019-04-22T05:59:46.041Z,12.52
2019-04-22T06:02:25.294Z,12.67
2019-04-22T06:04:55.772Z,12.31
2019-04-22T06:07:17.772Z,12.33
2019-04-22T06:09:54.985Z,12.49
2019-04-22T06:12:19.116Z,12.66
2019-04-22T06:14:54.310Z,12.45
2019-04-22T06:17:35.439Z,12.40
2019-04-22T06:20:00.612Z,12.58
2019-04-22T06:22:40.044Z,12.81
2019-04-22T06:25:00.844Z,13.30
2019-04-22T06:29:53.719Z,13.60
2019-04-22T06:35:11.362Z,13.58
2019-04-22T06:37:33.659Z,13.81
2019-04-22T06:39:59.387Z,13.83
2019-04-22T06:42:36.645Z,13.90
2019-04-22T06:45:07.304Z,14.14
2019-04-22T06:50:07.605Z,14.64
2019-04-22T06:52:41.955Z,14.61
2019-04-22T06:55:11.725Z,14.43
2019-04-22T06:57:39.391Z,14.96
2019-04-22T07:00:14.320Z,14.49
2019-04-22T07:02:56.378Z,14.24
2019-04-22T07:05:17.355Z,14.87
2019-04-22T07:07:46.251Z,15.11
2019-04-22T07:10:26.848Z,15.65
2019-04-22T07:12:49.101Z,16.09
2019-04-22T07:15:36.995Z,16.13
2019-04-22T07:18:01.003Z,16.04
2019-04-22T07:20:23.707Z,15.90
2019-04-22T07:22:59.920Z,16.46
2019-04-22T07:25:23.570Z,16.28
2019-04-22T07:27:53.833Z,16.67
2019-04-22T07:35:28.520Z,16.82
2019-04-22T07:38:00.644Z,16.69
2019-04-22T07:40:29.057Z,16.70
2019-04-22T07:42:59.169Z,17.02
2019-04-22T07:45:29.595Z,17.19
2019-04-22T07:48:02.709Z,17.30
2019-04-22T07:50:43.005Z,17.95
2019-04-22T07:53:02.859Z,17.71
2019-04-22T07:55:27.359Z,18.18
2019-04-22T07:58:02.340Z,18.18
2019-04-22T08:00:34.339Z,18.26
2019-04-22T08:05:52.117Z,18.67
2019-04-22T08:08:21.574Z,18.52
2019-04-22T08:13:21.131Z,18.45
2019-04-22T08:15:48.591Z,18.92
2019-04-22T08:18:17.428Z,19.29
2019-04-22T08:20:56.767Z,19.58
2019-04-22T08:25:55.468Z,19.31
2019-04-22T08:28:34.455Z,19.43
2019-04-22T08:31:05.261Z,19.60
2019-04-22T08:33:33.425Z,19.80
2019-04-22T08:36:18.582Z,20.32
2019-04-22T08:38:52.845Z,20.57
2019-04-22T08:44:05.369Z,20.39
2019-04-22T08:53:12.490Z,21.22
2019-04-22T08:58:20.324Z,21.02
2019-04-22T09:00:44.633Z,20.34
2019-04-22T09:03:15.995Z,20.59
2019-04-22T09:06:15.275Z,21.01
2019-04-22T09:08:19.086Z,20.60
2019-04-22T09:10:50.368Z,20.26
2019-04-22T09:13:31.955Z,20.26
2019-04-22T09:15:50.954Z,21.35
2019-04-22T09:18:42.197Z,21.01
2019-04-22T09:21:18.716Z,20.79
2019-04-22T09:23:57.175Z,20.26
2019-04-22T09:26:23.986Z,21.08
2019-04-22T09:29:01.318Z,21.40
2019-04-22T09:31:19.292Z,20.97
2019-04-22T09:33:53.365Z,21.48
2019-04-22T09:36:34.216Z,21.92
2019-04-22T09:38:52.994Z,20.97
2019-04-22T09:41:33.339Z,20.73
2019-04-22T09:43:56.679Z,21.59
2019-04-22T09:46:36.153Z,21.61
2019-04-22T09:49:06.465Z,21.76
2019-04-22T09:51:32.558Z,21.71
2019-04-22T09:54:12.503Z,20.26
2019-04-22T09:56:47.597Z,21.17
2019-04-22T09:59:07.716Z,20.52
2019-04-22T10:02:08.131Z,20.10
2019-04-22T10:04:06.947Z,21.09
2019-04-22T10:11:45.388Z,21.58
2019-04-22T10:14:14.152Z,21.13
2019-04-22T10:16:47.902Z,21.16
2019-04-22T10:19:18.406Z,21.26
2019-04-22T10:21:54.841Z,21.15
2019-04-22T10:24:21.579Z,21.05
2019-04-22T10:26:55.291Z,21.37
2019-04-22T10:29:24.666Z,21.55
2019-04-22T10:32:05.621Z,22.17
2019-04-22T10:34:14.134Z,21.22
2019-04-22T10:36:31.161Z,22.27
2019-04-22T10:39:04.254Z,20.56
2019-04-22T10:41:34.604Z,20.59
2019-04-22T10:44:08.893Z,20.58
2019-04-22T10:46:37.957Z,21.43
2019-04-22T10:49:08.496Z,21.58
2019-04-22T10:51:37.289Z,21.22
2019-04-22T10:54:07.370Z,21.29
2019-04-22T10:56:36.989Z,21.12
2019-04-22T10:59:06.802Z,21.03
2019-04-22T11:01:38.462Z,21.33
2019-04-22T11:04:09.341Z,21.24
2019-04-22T11:06:40.934Z,21.36
2019-04-22T11:09:10.569Z,22.01
2019-04-22T11:11:48.776Z,21.58
2019-04-22T11:14:10.664Z,21.95
2019-04-22T11:16:41.582Z,21.72
2019-04-22T11:19:11.782Z,21.57
2019-04-22T11:21:41.313Z,21.59
2019-04-22T11:24:12.617Z,21.69
2019-04-22T11:26:45.169Z,21.15
2019-04-22T11:29:17.298Z,21.51
2019-04-22T11:31:50.511Z,21.34
2019-04-22T11:34:19.416Z,21.02
2019-04-22T11:36:48.241Z,21.46
2019-04-22T11:39:21.783Z,21.61
2019-04-22T11:41:51.924Z,22.04
2019-04-22T11:44:30.903Z,22.15
2019-04-22T11:47:01.536Z,21.82
2019-04-22T11:49:32.161Z,21.20
2019-04-22T11:52:01.119Z,21.03
2019-04-22T11:54:42.971Z,21.52
2019-04-22T11:57:12.896Z,21.15
2019-04-22T11:59:47.062Z,21.29
2019-04-22T12:02:25.390Z,22.02
2019-04-22T12:04:56.552Z,20.94
2019-04-22T12:07:26.691Z,20.74
2019-04-22T12:09:55.942Z,21.34
2019-04-22T12:12:27.720Z,21.07
2019-04-22T12:14:56.649Z,21.41
2019-04-22T12:17:26.407Z,21.44
2019-04-22T12:19:55.845Z,21.99
2019-04-22T12:22:25.126Z,21.29
2019-04-22T12:25:01.813Z,21.46
2019-04-22T12:27:32.675Z,21.43
2019-04-22T12:30:02.885Z,21.54
2019-04-22T12:32:33.556Z,21.64
2019-04-22T12:35:02.515Z,21.98
2019-04-22T12:37:40.514Z,21.68
2019-04-22T12:40:02.736Z,21.70
2019-04-22T12:42:37.558Z,21.40
2019-04-22T12:45:09.936Z,21.82
2019-04-22T12:47:42.053Z,21.80
2019-04-22T12:50:26.254Z,21.63
2019-04-22T12:53:10.413Z,21.71
2019-04-22T12:55:34.769Z,21.79
2019-04-22T12:58:03.447Z,22.16
2019-04-22T13:00:32.413Z,21.82
2019-04-22T13:03:03.034Z,21.84
2019-04-22T13:05:33.512Z,21.28
2019-04-22T13:08:02.206Z,21.34
2019-04-22T13:10:41.756Z,21.43
2019-04-22T13:13:02.775Z,21.21
2019-04-22T13:15:32.971Z,21.45
2019-04-22T13:18:11.840Z,21.53
2019-04-22T13:20:38.654Z,21.08
2019-04-22T13:23:22.697Z,20.85
2019-04-22T13:25:52.814Z,20.73
2019-04-22T13:28:22.911Z,20.67
2019-04-22T13:30:52.721Z,21.22
2019-04-22T13:33:23.174Z,21.06
2019-04-22T13:35:55.813Z,21.41
2019-04-22T13:38:28.980Z,21.38
2019-04-22T13:41:07.268Z,21.46
2019-04-22T13:43:34.335Z,21.38
2019-04-22T13:46:06.050Z,21.33
2019-04-22T13:48:58.976Z,21.42
2019-04-22T13:51:36.409Z,21.05
2019-04-22T13:54:37.117Z,21.50
2019-04-22T13:56:25.311Z,21.52
2019-04-22T13:58:53.081Z,21.43
2019-04-22T14:01:14.595Z,21.10
2019-04-22T14:03:54.537Z,21.11
2019-04-22T14:06:24.822Z,21.23
2019-04-22T14:08:59.052Z,21.14
2019-04-22T14:11:36.718Z,21.63
2019-04-22T14:13:58.753Z,21.71
2019-04-22T14:16:28.982Z,21.25
2019-04-22T14:18:58.236Z,21.16
2019-04-22T14:21:34.663Z,21.27
2019-04-22T14:24:13.787Z,21.07
2019-04-22T14:26:54.916Z,20.79
2019-04-22T14:29:13.625Z,20.81
2019-04-22T14:32:04.318Z,20.47
2019-04-22T14:34:20.941Z,20.68
2019-04-22T14:36:51.178Z,21.00
2019-04-22T14:39:23.938Z,20.99
2019-04-22T14:42:14.056Z,20.69
2019-04-22T14:47:19.619Z,21.01
2019-04-22T14:49:47.419Z,20.76
2019-04-22T14:52:21.539Z,21.15
2019-04-22T14:54:41.342Z,20.64
2019-04-22T14:57:01.357Z,20.68
2019-04-22T14:59:30.959Z,20.69
2019-04-22T15:02:01.431Z,20.38
2019-04-22T15:04:31.050Z,20.13
2019-04-22T15:07:01.123Z,20.35
2019-04-22T15:09:30.195Z,20.39
2019-04-22T15:12:11.050Z,20.46
2019-04-22T15:14:33.238Z,20.34
2019-04-22T15:17:11.001Z,20.09
2019-04-22T15:19:45.529Z,20.00
2019-04-22T15:22:18.779Z,19.92
2019-04-22T15:24:47.780Z,19.90
2019-04-22T15:27:22.465Z,19.81
2019-04-22T15:29:54.613Z,19.83
2019-04-22T15:32:23.502Z,19.83
2019-04-22T15:34:53.397Z,19.75
2019-04-22T15:37:24.263Z,19.94
2019-04-22T15:39:56.314Z,19.87
2019-04-22T15:42:28.776Z,20.06
2019-04-22T15:44:53.969Z,19.84
2019-04-22T15:47:22.945Z,19.62
2019-04-22T15:49:52.179Z,19.50
2019-04-22T15:52:31.949Z,19.42
2019-04-22T15:54:56.653Z,19.39
2019-04-22T15:57:26.656Z,19.27
2019-04-22T16:00:10.559Z,19.33
2019-04-22T16:02:27.696Z,19.45
2019-04-22T16:04:56.914Z,19.32
2019-04-22T16:07:27.404Z,19.13
2019-04-22T16:09:57.531Z,19.10
2019-04-22T16:12:34.520Z,19.12
2019-04-22T16:14:59.281Z,19.01
2019-04-22T16:17:30.700Z,18.95
2019-04-22T16:19:59.485Z,18.88
2019-04-22T16:22:32.865Z,18.93
2019-04-22T16:25:13.317Z,18.91
2019-04-22T16:27:42.775Z,18.83
2019-04-22T16:30:13.123Z,18.66
2019-04-22T16:32:43.485Z,18.56
2019-04-22T16:35:18.681Z,18.76
2019-04-22T16:37:48.569Z,18.61
2019-04-22T16:40:18.711Z,18.51
2019-04-22T16:42:58.175Z,18.50
2019-04-22T16:45:19.897Z,18.48
2019-04-22T16:47:49.456Z,18.48
2019-04-22T16:50:18.707Z,18.35
2019-04-22T16:52:48.193Z,18.40
2019-04-22T16:55:17.269Z,18.47
2019-04-22T16:57:46.168Z,18.42
2019-04-22T17:00:16.683Z,18.35
2019-04-22T17:03:00.643Z,18.24
2019-04-22T17:05:37.731Z,18.12
2019-04-22T17:08:08.193Z,17.93
2019-04-22T17:10:37.861Z,17.86
2019-04-22T17:13:13.053Z,17.86
2019-04-22T17:15:37.629Z,17.69
2019-04-22T17:18:07.438Z,17.75
2019-04-22T17:20:36.232Z,17.76
2019-04-22T17:23:05.458Z,17.55
2019-04-22T17:25:34.479Z,17.55
2019-04-22T17:28:03.685Z,17.58
2019-04-22T17:30:33.172Z,17.51
2019-04-22T17:33:03.199Z,17.42
2019-04-22T17:35:34.035Z,17.51
2019-04-22T17:38:14.916Z,17.30
2019-04-22T17:40:51.211Z,17.40
2019-04-22T17:43:42.099Z,17.37
2019-04-22T17:46:12.308Z,17.33
2019-04-22T17:49:00.846Z,17.14
2019-04-22T17:51:31.441Z,17.16
2019-04-22T17:53:57.991Z,17.09
2019-04-22T17:56:27.636Z,16.92
2019-04-22T17:58:57.087Z,16.87
2019-04-22T18:01:29.513Z,16.79
2019-04-22T18:03:49.734Z,16.91
2019-04-22T18:06:44.181Z,16.91
2019-04-22T18:09:05.334Z,16.78
2019-04-22T18:12:01.112Z,16.66
2019-04-22T18:14:29.875Z,16.62
2019-04-22T18:16:44.483Z,16.60
2019-04-22T18:19:10.116Z,16.85
2019-04-22T18:21:36.180Z,16.66
2019-04-22T18:24:06.807Z,16.57
2019-04-22T18:26:49.494Z,16.55
2019-04-22T18:29:16.188Z,16.58
2019-04-22T18:31:40.892Z,16.60
2019-04-22T18:34:15.604Z,16.50
2019-04-22T18:36:45.690Z,16.51
2019-04-22T18:39:33.439Z,16.53
2019-04-22T18:41:51.999Z,16.48
2019-04-22T18:44:55.539Z,16.46
2019-04-22T18:47:20.333Z,16.51
2019-04-22T18:49:49.364Z,16.31
2019-04-22T18:52:38.652Z,16.22
2019-04-22T18:55:07.223Z,16.19
2019-04-22T18:57:52.125Z,16.08
2019-04-22T19:00:17.911Z,16.16
2019-04-22T19:02:58.489Z,16.20
2019-04-22T19:05:34.735Z,16.12
2019-04-22T19:08:20.367Z,16.16
2019-04-22T19:10:57.609Z,16.09
2019-04-22T19:13:45.193Z,16.01
2019-04-22T19:15:54.364Z,15.89
2019-04-22T19:18:29.849Z,15.92
2019-04-22T19:20:59.183Z,15.80
2019-04-22T19:23:29.051Z,15.86
2019-04-22T19:25:52.566Z,16.08
2019-04-22T19:28:42.274Z,15.94
2019-04-22T19:31:02.648Z,15.85
2019-04-22T19:33:28.825Z,15.65
2019-04-22T19:35:59.925Z,15.75
2019-04-22T19:38:20.635Z,15.55
2019-04-22T19:41:14.552Z,15.62
2019-04-22T19:44:33.292Z,15.64
2019-04-22T19:47:18.509Z,15.92
2019-04-22T19:49:36.447Z,16.01
2019-04-22T19:52:05.575Z,15.61
2019-04-22T19:54:34.941Z,15.57
2019-04-22T19:56:59.100Z,15.62
2019-04-22T19:59:32.346Z,15.51
2019-04-22T20:02:24.969Z,15.65
2019-04-22T20:05:02.763Z,15.67
2019-04-22T20:07:27.801Z,15.51
2019-04-22T20:10:14.912Z,15.34
2019-04-22T20:12:41.137Z,15.36
2019-04-22T20:15:13.836Z,15.27
2019-04-22T20:23:22.901Z,15.31
2019-04-22T20:25:56.266Z,15.34
2019-04-22T20:28:37.887Z,15.35
2019-04-22T20:31:09.892Z,15.20
2019-04-22T20:34:04.674Z,15.22
2019-04-22T20:36:52.989Z,15.13
2019-04-22T20:38:59.348Z,14.86
2019-04-22T20:41:31.764Z,14.84
2019-04-22T20:49:44.961Z,14.90
2019-04-22T20:52:24.217Z,14.77
2019-04-22T20:54:44.900Z,14.71
2019-04-22T20:57:15.220Z,14.70
2019-04-22T20:59:48.458Z,14.65
2019-04-22T21:02:15.290Z,14.50
2019-04-22T21:04:41.546Z,14.39
2019-04-22T21:07:19.606Z,14.32
2019-04-22T21:09:52.405Z,14.54
2019-04-22T21:12:19.642Z,14.33
2019-04-22T21:15:00.463Z,14.22
2019-04-22T21:17:30.915Z,14.07
2019-04-22T21:20:00.701Z,14.05
2019-04-22T21:22:33.512Z,14.02
2019-04-22T21:24:57.576Z,13.97
2019-04-22T21:27:34.386Z,13.88
2019-04-22T21:29:58.231Z,13.85
2019-04-22T21:32:42.001Z,13.80
2019-04-22T21:35:21.565Z,13.84
2019-04-22T21:37:42.985Z,13.81
2019-04-22T21:40:18.153Z,13.76
2019-04-22T21:42:55.877Z,13.75
2019-04-22T21:45:16.553Z,13.70
2019-04-22T21:47:57.603Z,13.76
2019-04-22T21:53:02.299Z,13.65
2019-04-22T21:55:37.844Z,13.70
2019-04-22T21:58:27.930Z,13.69
2019-04-22T22:01:07.637Z,13.62
2019-04-22T22:03:30.087Z,13.58
2019-04-22T22:05:54.408Z,13.59
2019-04-22T22:08:32.163Z,13.59
2019-04-22T22:10:57.933Z,13.58
2019-04-22T22:13:38.650Z,13.60
2019-04-22T22:16:10.317Z,13.61
2019-04-22T22:18:34.977Z,13.62
2019-04-22T22:21:36.315Z,13.57
2019-04-22T22:23:55.910Z,13.59
2019-04-22T22:26:15.584Z,13.61
2019-04-22T22:28:56.647Z,13.62
2019-04-22T22:31:28.626Z,13.49
2019-04-22T22:34:10.795Z,13.52
2019-04-22T22:36:33.259Z,13.52
2019-04-22T22:39:05.468Z,13.43
2019-04-22T22:41:23.866Z,13.46
2019-04-22T22:43:58.261Z,13.50
2019-04-22T22:46:34.122Z,13.46
2019-04-22T22:49:18.602Z,13.34
2019-04-22T22:51:53.134Z,13.32
2019-04-22T22:54:25.100Z,13.41
2019-04-22T22:57:19.502Z,13.36
2019-04-22T22:59:27.593Z,13.38
2019-04-22T23:01:54.407Z,13.25
2019-04-22T23:04:37.128Z,13.34
2019-04-22T23:07:09.302Z,13.29
2019-04-22T23:09:47.336Z,13.29
2019-04-22T23:12:25.046Z,13.39
2019-04-22T23:14:44.251Z,13.26
2019-04-22T23:17:03.112Z,13.31
2019-04-22T23:19:26.077Z,13.32
2019-04-22T23:22:01.102Z,13.34
2019-04-22T23:25:03.203Z,13.26
2019-04-22T23:27:34.133Z,13.28
2019-04-22T23:30:12.785Z,13.25
2019-04-22T23:32:58.003Z,13.34
2019-04-22T23:35:39.676Z,13.30
2019-04-22T23:38:10.719Z,13.46
2019-04-22T23:40:42.925Z,13.33
2019-04-22T23:43:36.778Z,13.37
2019-04-22T23:46:02.906Z,13.37
2019-04-22T23:48:28.975Z,13.26
2019-04-22T23:51:12.104Z,13.24
2019-04-22T23:54:04.316Z,13.24
2019-04-22T23:56:17.192Z,13.25
2019-04-22T23:58:58.504Z,13.20
